Butler, Tennessee
Current Conditions -  °F | °C
As of 2:55 PM on Thursday 30 Oct 2014 (Local Time) from K0A9 Reporting Station
Clear Clear  
Wind Chill: 55°   Ceiling: Unl
Heat Index: 55°   Visibility: 10mi
Dew Point: 37°   Wind: 6mph
Humidity: 51%   Direction: 250°WSW
Pressure: 30.03"   Gusts: NA
Location:  36.35°N, 82.03°W
Report Text: K0A9 301855Z AUTO 25005KT 10SM CLR 13/03 A3003 RMK
Loading
Personal Weather Stations






























Interactive Weather Map
Tropical Storm Tracking
New forecast layout! Learn more

10-Day Weather Forecast

Advertisements
Track Severe Weather on mobile